This is the latest recevied weather packets stored in our database for station/object WR7DW-3. If no packets are shown the sender has not sent any weather packets the latest 1 day(s).
| Time | Temp. | Humidity | Pressure | Rain* | Wind** | Luminosity | Snow |
|---|---|---|---|---|---|---|---|
| 1778023778 | 2.78° C | 56% | 1012.1 hPa | 0 mm | 0 m/s | - | - |
| 1778022878 | 3.89° C | 56% | 1012.3 hPa | 0 mm | 0 m/s | - | - |
| 1778021978 | 2.78° C | 55% | 1012.2 hPa | 0 mm | 0 m/s | - | - |
| 1778021078 | 4.44° C | 52% | 1012.1 hPa | 0 mm | 0 m/s | - | - |
| 1778020178 | 3.33° C | 54% | 1012.3 hPa | 0 mm | 0 m/s | - | - |
| 1778019278 | 3.89° C | 52% | 1012.4 hPa | 0 mm | 0 m/s | - | - |
| 1778018380 | 3.33° C | 54% | 1012.4 hPa | 0 mm | 0 m/s | - | - |
| 1778017478 | 2.78° C | 55% | 1012.4 hPa | 0 mm | 0 m/s | - | - |
| 1778016578 | 3.33° C | 54% | 1012.4 hPa | 0 mm | 0 m/s | - | - |
| 1778015678 | 3.33° C | 56% | 1012.4 hPa | 0 mm | 0 m/s | - | - |
| 1778014778 | 2.22° C | 56% | 1012.6 hPa | 0 mm | 0 m/s | - | - |
| 1778013878 | 2.78° C | 56% | 1012.7 hPa | 0 mm | 0 m/s | - | - |
| 1778012978 | 2.78° C | 59% | 1012.7 hPa | 0 mm | 0 m/s | - | - |
| 1778012078 | 2.78° C | 59% | 1012.8 hPa | 0 mm | 0 m/s | - | - |
| 1778011178 | 1.11° C | 62% | 1012.9 hPa | 0 mm | 0 m/s | - | - |
| 1778010278 | 2.78° C | 59% | 1012.7 hPa | 0 mm | 0 m/s | - | - |
| 1778009378 | 2.22° C | 61% | 1012.3 hPa | 0 mm | 0 m/s | - | - |
| 1778008478 | 2.22° C | 62% | 1012.5 hPa | 0 mm | 0 m/s | - | - |
| 1778007578 | 2.22° C | 62% | 1012.3 hPa | 0 mm | 0 m/s | - | - |
| 1778006682 | 0.56° C | 66% | 1012 hPa | 0 mm | 0 m/s | - | - |
| 1778005778 | 0.56° C | 62% | 1011.9 hPa | 0 mm | 0 m/s | - | - |
| 1778004879 | 1.11° C | 63% | 1012 hPa | 0 mm | 0 m/s | - | - |
| 1778003979 | 0.56° C | 64% | 1012.1 hPa | 0 mm | 0 m/s | - | - |
| 1778003082 | 0.56° C | 62% | 1011.9 hPa | 0 mm | 0 m/s | - | - |
| 1778002179 | 0° C | 63% | 1011.7 hPa | 0 mm | 0 m/s | - | - |
* Rain latest hour (hover to see other rain measurements)
** Current wind speed in m/s (hover to see current wind gust speed)